GetGPSは位置情報をもとに「Hakodate, Hokkaido 042-0952, Japan (北緯41度46分31.81秒、東経140度48分56.88秒、位置: Japan, 〒042-0952 Hokkaido, Hakodate, Takamatsuchō, 511 函館空港)」付近の「@rjch_metar」が含まれるTweet(ツイート)を取得しました。現在地の取得は今すぐ「GetGPS」ボタンをクリック(またはタップ)!

GetGPS [Click or Tap]

translate:
latitude: 41.77550252330288
longitude: 140.81579879120048
links: PLINK  GMAP  OSM  HOME 
popularity:  Saku,殺害予告犯福寿洋輔容疑者(16)  Hakone(9)  Hakone(9)  Naha-shi,@Naokinjo(6)  Fujisawa(6)  none,#ซ่อนเงารักep4(5)  Osaka,@kathlynguinto(5)  Shinjuku-ku,@sangarciacorre(5)  Chiyoda-ku,#小泉花陽生誕祭2020(5)  Sendai-shi,#小泉花陽生誕祭2020(5)  Washington,#Iranattack(5)  Seattle,#WelcomeBackHanbin(5)  none(4)  none,#2020kaiday(4)  none,#ClassicAgain(4)  none,#DoubleKnot(4)  none,#Psycho3rdWin(4)  none,#saveนกอ้วก(4)  none,#ThirdLapat(4)  none,#ตูมสนิท(4)  none,#새로태어날_엑스원(4)  none,Joker(4)  Miyazaki-shi,#鬱先生誕生祭2020(4)  Ōita-shi,@8083tm(4) 
@rjch_metar
rjch_metar
RJCH METAR @rjch_metar
RJCH 281713Z (cont.) BKN005 TEMPO 2912/2918 06016G28KT 2000 -SHSN FEW005 BKN008 TEMPO 2918/2921 3000 -SHSN BECMG 2921/3000 35005KT (1時間前)
rjch_metar
RJCH METAR @rjch_metar
RJCH 281713Z 2818/3000 09016KT 9999 FEW008 BKN015 TEMPO 2818/2900 09018G28KT TEMPO 2900/2912 07020G30KT 3000 -SHRASN BR FEW003 (cont.) (1時間前)
rjch_metar
RJCH METAR @rjch_metar
RJCH 281112Z (cont.) TEMPO 2903/2906 07018G28KT 3000 SHRASN BR FEW003 BKN005 TEMPO 2906/2912 07018G28KT 1500 -SHSNR… https://t.co/0NhKIPBjto (2時間前)
rjch_metar
RJCH METAR @rjch_metar
RJCH 281112Z 2812/2918 10021KT 9999 FEW008 BKN015 TEMPO 2812/2821 10025G35KT TEMPO 2821/2903 4000 -SHRASN BR FEW005 BKN008 (cont.) (2時間前)
rjch_metar
RJCH METAR @rjch_metar
RJCH 281100Z 09015G28KT 9999 FEW015 BKN025 04/M01 Q1022 (8時間前)
rjch_metar
RJCH METAR @rjch_metar
RJCH 280900Z 10014KT 9999 FEW020 BKN025 04/M01 Q1023 (10時間前)
rjch_metar
RJCH METAR @rjch_metar
RJCH 280800Z 10012KT 9999 FEW018 SCT020 BKN030 04/M01 Q1023 (10時間前)
rjch_metar
RJCH METAR @rjch_metar
RJCH 280700Z 08011KT 9999 FEW020 BKN030 04/M02 Q1023 (12時間前)
rjch_metar
RJCH METAR @rjch_metar
RJCH 280600Z 09011KT 9999 FEW015 SCT020 BKN030 04/M01 Q1023 (12時間前)
rjch_metar
RJCH METAR @rjch_metar
RJCH 280500Z 08012KT 9999 FEW015 SCT025 BKN035 04/M02 Q1023 (14時間前)
rjch_metar
RJCH METAR @rjch_metar
RJCH 280300Z 10017KT 9999 FEW018 SCT025 BKN035 03/M03 Q1025 (16時間前)
rjch_metar
RJCH METAR @rjch_metar
RJCH 280200Z 11020KT 9999 FEW018 SCT025 BKN030 04/M02 Q1025 (16時間前)
rjch_metar
RJCH METAR @rjch_metar
RJCH 280100Z 10016KT 9999 -SHRASN FEW018 BKN025 BKN030 03/M01 Q1026 (18時間前)
rjch_metar
RJCH METAR @rjch_metar
RJCH 280000Z 09014KT 9999 -SHRA FEW015 BKN025 BKN030 03/M01 Q1026 (18時間前)
rjch_metar
RJCH METAR @rjch_metar
RJCH 272300Z 06008KT 9999 -SHSNRA FEW018 BKN025 BKN030 02/M01 Q1026 (20時間前)
rjch_metar
RJCH METAR @rjch_metar
RJCH 272200Z 06008KT 9999 -SHSN FEW020 SCT030 BKN035 01/M02 Q1026 (20時間前)
rjch_metar
RJCH METAR @rjch_metar
RJCH 272110Z 06008KT 9999 -SHSN FEW015 SCT030 BKN035 00/M03 Q1026 RMK 1ST015 3CU030 5CU035 A3030 (22時間前)
rjch_metar
RJCH METAR @rjch_metar
RJCH 271711Z (cont.) 2821/2900 3000 SHRASN BR FEW003 BKN006 (1日前)
rjch_metar
RJCH METAR @rjch_metar
RJCH 271711Z 2718/2900 06006KT 9999 FEW015 BKN025 BECMG 2723/2801 10017KT TEMPO 2815/2821 4000 -SHRASN BR FEW005 BKN008 TEMPO (cont.) (1日前)
rjch_metar
RJCH METAR @rjch_metar
RJCH 271110Z (cont.) 4000 SHRASN BR FEW005 BKN008 (1日前)
rjch_metar
RJCH METAR @rjch_metar
RJCH 271110Z 2712/2818 04007KT 9999 FEW025 BECMG 2800/2803 09017KT TEMPO 2809/2815 09020G30KT TEMPO 2815/2818 09020G30KT (cont.) (1日前)
rjch_metar
RJCH METAR @rjch_metar
RJCH 271100Z 06009KT 9999 FEW030 SCT/// M01/M06 Q1027 (1日前)
rjch_metar
RJCH METAR @rjch_metar
RJCH 271000Z 04004KT 340V080 9999 FEW030 M01/M06 Q1026 (1日前)
rjch_metar
RJCH METAR @rjch_metar
RJCH 270900Z 01004KT 9999 FEW030 M01/M06 Q1027 (1日前)
rjch_metar
RJCH METAR @rjch_metar
RJCH 270800Z 35005KT 320V050 9999 FEW025 SCT/// 01/M06 Q1026 (1日前)
trends: 大好き(382480) #名前を一音ずつ下げるとカオス(22481) #星野源ANN(21009) カシウス(26885) ポケモンホーム(22913) Pokémon HOME(36242) #メンテの日なのでssを貼る(28182) #PROTOSTAR(37100) #平野紫耀誕生祭2020(12187) 

Japan >  Hokkaido >  Hakodate

your IP: 18.210.24.208

©2020 PRNDC.COM

トップに戻る